Decoded Metar for KWRB (MACON in GA, USA) (IATA:WRB) | Meteo·Mobile Aviation Weather
aviador You're here:

KWRB Decoded Metar

MACON in GA, USA
Report Time2018-11-19 21:56:00
UTC Time2018-11-19 22:19:11
Flight Rules vfr VFR
Wind120° at 04 kt
W.Decomp.*RWY 15: 3.5 kt HW 1.9 kt LCW
W.Rank120° ranks 11
Current wind is below 120° avg. (4.5)
Visibility9999 m
Phenomena:N/A
Clouds:N/A
Expected CloudBase > 2,400 ft AGL from Temp-Dew spread
CeilingNone
Temp18°C (ISA +4)
Dew Point12°C (68% RH)
AAT17.2°C
QNH1019 hPa
Density Alt702 ft
Elevation295 ft
Report Wrong Elevation
Raw Report
KWRB 192156Z 12004KT 10SM CLR 18/12 A3008 RMK AO2A SLP188
T01780116=

Extra information for KWRB:More info

Metar Taf Metar & Taf Last 4 Metars F.Rules Stats Wind Profile Meteogram Temp Stats Airport Information Weather charts Add Link Nearby VenuesMetar ALERT Operation Metar Decoded Social comments

AIRNAV info for KWRB